Bentley, Illinois
Current Conditions -  °F | °C
As of 4:55 PM on Saturday 25 Oct 2014 (Local Time) from KMQB Reporting Station
Clear Clear  
Wind Chill: 23°   Ceiling: Unl
Heat Index: 23°   Visibility: 10mi
Dew Point:   Wind: 10mph
Humidity: 32%   Direction: 320°NW
Pressure: 30.04"   Gusts: NA
Location:  40.4155°N, 91.0269°W
Report Text: KMQB 252155Z AUTO 32009KT 10SM CLR 23/05 A3004 RMK AO2 T02250051
Loading
Personal Weather Stations






























Interactive Weather Map
Tropical Storm Tracking
New forecast layout! Learn more

10-Day Weather Forecast

Advertisements
Track Severe Weather on mobile